createdAt,value
2022-09-28T00:03:50.499Z,63.51
2022-09-28T00:09:01.396Z,63.55
2022-09-28T00:14:09.406Z,63.35
2022-09-28T00:19:17.721Z,63.68
2022-09-28T00:24:28.730Z,63.94
2022-09-28T00:29:38.470Z,63.85
2022-09-28T00:34:48.914Z,64.03
2022-09-28T00:39:59.405Z,64.15
2022-09-28T00:45:08.767Z,63.81
2022-09-28T00:50:23.035Z,64.46
2022-09-28T00:55:41.453Z,64.74
2022-09-28T01:00:49.021Z,64.13
2022-09-28T01:05:59.025Z,64.50
2022-09-28T01:11:09.489Z,64.50
2022-09-28T01:16:25.883Z,64.80
2022-09-28T01:21:49.404Z,64.46
2022-09-28T01:27:08.951Z,64.68
2022-09-28T01:32:30.501Z,64.57
2022-09-28T01:37:45.048Z,64.28
2022-09-28T01:42:59.850Z,64.62
2022-09-28T01:48:10.599Z,64.65
2022-09-28T01:53:24.262Z,64.69
2022-09-28T01:58:40.706Z,64.49
2022-09-28T02:03:55.205Z,64.83
2022-09-28T02:09:11.200Z,64.51
2022-09-28T02:14:22.613Z,64.64
2022-09-28T02:19:32.276Z,64.55
2022-09-28T02:24:43.064Z,64.72
2022-09-28T02:29:53.226Z,64.53
2022-09-28T02:35:01.055Z,64.54
2022-09-28T02:40:16.162Z,64.46
2022-09-28T02:45:37.163Z,64.60
2022-09-28T02:50:54.270Z,64.47
2022-09-28T02:56:20.431Z,64.51
2022-09-28T03:01:37.949Z,64.47
2022-09-28T03:06:51.579Z,64.86
2022-09-28T03:12:03.820Z,64.41
2022-09-28T03:17:14.039Z,64.81
2022-09-28T03:22:22.056Z,64.62
2022-09-28T03:27:29.741Z,64.27
2022-09-28T03:32:40.126Z,64.52
2022-09-28T03:37:47.603Z,64.61
2022-09-28T03:42:55.135Z,64.48
2022-09-28T03:48:05.368Z,64.57
2022-09-28T03:53:12.885Z,64.50
2022-09-28T03:58:23.220Z,64.46
2022-09-28T04:03:33.953Z,64.76
2022-09-28T04:08:43.099Z,64.44
2022-09-28T04:13:52.020Z,64.59
2022-09-28T04:19:04.236Z,64.56
2022-09-28T04:24:12.578Z,64.49
2022-09-28T04:29:21.107Z,64.45
2022-09-28T04:34:35.447Z,64.69
2022-09-28T04:39:48.221Z,64.79
2022-09-28T04:44:58.046Z,64.83
2022-09-28T04:50:09.085Z,65.14
2022-09-28T04:55:17.841Z,64.83
2022-09-28T05:00:25.639Z,64.67
2022-09-28T05:05:35.727Z,64.36
2022-09-28T05:10:43.214Z,64.19
2022-09-28T05:15:58.863Z,63.96
2022-09-28T05:21:13.712Z,64.29
2022-09-28T05:26:21.551Z,64.46
2022-09-28T05:31:30.765Z,64.35
2022-09-28T05:36:42.824Z,64.80
2022-09-28T05:41:50.389Z,64.92
2022-09-28T05:46:58.809Z,65.01
2022-09-28T05:52:08.883Z,65.04
2022-09-28T05:57:17.289Z,65.19
2022-09-28T06:02:25.329Z,65.64
2022-09-28T06:07:35.485Z,65.74
2022-09-28T06:12:43.019Z,66.17
2022-09-28T06:17:50.578Z,66.01
2022-09-28T06:23:01.054Z,65.54
2022-09-28T06:28:11.953Z,66.17
2022-09-28T06:33:19.432Z,65.76
2022-09-28T06:38:29.654Z,66.35
2022-09-28T06:43:39.671Z,66.14
2022-09-28T06:48:48.026Z,66.41
2022-09-28T06:53:58.105Z,66.42
2022-09-28T06:59:06.070Z,66.56
2022-09-28T07:04:14.186Z,66.98
2022-09-28T07:09:32.141Z,67.76
2022-09-28T07:14:47.784Z,67.25
2022-09-28T07:20:00.808Z,67.34
2022-09-28T07:25:12.968Z,67.89
2022-09-28T07:30:20.716Z,67.76
2022-09-28T07:35:28.366Z,67.98
2022-09-28T07:40:51.705Z,67.18
2022-09-28T07:45:59.281Z,67.18
2022-09-28T07:51:08.258Z,67.09
2022-09-28T07:56:21.287Z,67.18
2022-09-28T08:01:31.374Z,66.80
2022-09-28T08:06:40.565Z,66.90
2022-09-28T08:11:51.114Z,67.19
2022-09-28T08:16:58.709Z,67.40
2022-09-28T08:22:06.928Z,67.59
2022-09-28T08:27:19.380Z,67.80
2022-09-28T08:32:26.994Z,67.28
2022-09-28T08:37:35.432Z,67.31
2022-09-28T08:42:48.460Z,67.47
2022-09-28T08:48:16.464Z,67.57
2022-09-28T08:53:37.092Z,67.37
2022-09-28T08:58:58.245Z,67.22
2022-09-28T09:04:07.930Z,67.29
2022-09-28T09:09:26.581Z,67.38
2022-09-28T09:14:53.101Z,67.52
2022-09-28T09:20:12.607Z,67.10
2022-09-28T09:25:27.469Z,67.07
2022-09-28T09:30:49.646Z,66.91
2022-09-28T09:36:20.523Z,66.81
2022-09-28T09:41:42.684Z,66.86
2022-09-28T09:46:59.015Z,67.03
2022-09-28T09:52:14.722Z,66.65
2022-09-28T09:57:24.736Z,66.39
2022-09-28T10:02:37.595Z,66.23
2022-09-28T10:07:49.457Z,66.23
2022-09-28T10:12:57.355Z,65.63
2022-09-28T10:18:12.812Z,65.63
2022-09-28T10:23:25.607Z,65.62
2022-09-28T10:28:38.453Z,65.47
2022-09-28T10:33:48.886Z,65.52
2022-09-28T10:38:57.647Z,65.18
2022-09-28T10:44:11.175Z,64.91
2022-09-28T10:49:26.952Z,64.53
2022-09-28T10:54:34.970Z,64.85
2022-09-28T10:59:45.001Z,64.51
2022-09-28T11:04:59.014Z,64.45
2022-09-28T11:10:06.984Z,64.11
2022-09-28T11:15:22.825Z,63.41
2022-09-28T11:20:37.952Z,62.98
